createdAt,value
2018-12-30T00:01:57.475Z,100562.91
2018-12-30T00:05:01.306Z,100559.49
2018-12-30T00:08:06.375Z,100552.14
2018-12-30T00:11:09.837Z,100556.48
2018-12-30T00:14:14.353Z,100544.56
2018-12-30T00:17:18.271Z,100546.35
2018-12-30T00:20:22.794Z,100547.77
2018-12-30T00:23:27.392Z,100538.50
2018-12-30T00:26:30.948Z,100541.64
2018-12-30T00:29:34.934Z,100543.05
2018-12-30T00:32:38.436Z,100546.53
2018-12-30T00:35:44.133Z,100551.00
2018-12-30T00:38:47.640Z,100550.62
2018-12-30T00:41:51.297Z,100540.03
2018-12-30T00:44:54.799Z,100544.92
2018-12-30T00:47:59.510Z,100529.05
2018-12-30T00:51:03.689Z,100537.58
2018-12-30T00:54:08.979Z,100540.22
2018-12-30T00:57:13.285Z,100532.73
2018-12-30T01:00:18.252Z,100537.17
2018-12-30T01:03:23.188Z,100547.75
2018-12-30T01:06:27.734Z,100547.38
2018-12-30T01:09:37.623Z,100546.06
2018-12-30T01:12:43.201Z,100542.46
2018-12-30T01:15:49.666Z,100535.48
2018-12-30T01:18:55.111Z,100529.81
2018-12-30T01:22:01.034Z,100541.72
2018-12-30T01:25:06.279Z,100533.78
2018-12-30T01:28:12.209Z,100536.02
2018-12-30T01:31:17.876Z,100540.86
2018-12-30T01:34:22.717Z,100535.28
2018-12-30T01:37:27.071Z,100531.31
2018-12-30T01:40:32.445Z,100534.42
2018-12-30T01:43:36.733Z,100535.84
2018-12-30T01:46:41.753Z,100540.76
2018-12-30T01:49:45.376Z,100538.48
2018-12-30T01:52:50.065Z,100534.92
2018-12-30T01:55:54.947Z,100539.44
2018-12-30T01:59:00.120Z,100549.16
2018-12-30T02:02:04.968Z,100539.06
2018-12-30T02:05:12.871Z,100536.02
2018-12-30T02:08:18.239Z,100534.23
2018-12-30T02:11:22.537Z,100530.72
2018-12-30T02:14:28.596Z,100526.38
2018-12-30T02:17:33.612Z,100529.52
2018-12-30T02:20:38.131Z,100528.29
2018-12-30T02:23:43.758Z,100533.58
2018-12-30T02:26:48.449Z,100521.77
2018-12-30T02:29:53.837Z,100529.13
2018-12-30T02:32:58.697Z,100537.14
2018-12-30T02:36:03.415Z,100523.91
2018-12-30T02:39:08.929Z,100518.63
2018-12-30T02:42:13.106Z,100519.58
2018-12-30T02:45:17.707Z,100527.05
2018-12-30T02:48:22.235Z,100514.29
2018-12-30T02:51:26.482Z,100509.36
2018-12-30T02:54:31.455Z,100513.33
2018-12-30T02:57:35.550Z,100508.99
2018-12-30T03:00:41.587Z,100501.06
2018-12-30T03:03:45.558Z,100504.56
2018-12-30T03:06:51.693Z,100497.09
2018-12-30T03:09:56.323Z,100503.33
2018-12-30T03:13:01.553Z,100495.77
2018-12-30T03:16:06.181Z,100484.81
2018-12-30T03:19:11.224Z,100490.11
2018-12-30T03:22:15.219Z,100488.78
2018-12-30T03:25:19.249Z,100490.11
2018-12-30T03:28:25.704Z,100482.17
2018-12-30T03:31:30.758Z,100487.06
2018-12-30T03:34:35.520Z,100488.78
2018-12-30T03:37:41.152Z,100489.70
2018-12-30T03:40:46.588Z,100481.77
2018-12-30T03:43:51.360Z,100480.44
2018-12-30T03:46:55.277Z,100480.44
2018-12-30T03:49:59.828Z,100476.07
2018-12-30T03:53:05.221Z,100466.81
2018-12-30T03:56:09.710Z,100473.42
2018-12-30T03:59:16.164Z,100468.14
2018-12-30T04:02:21.143Z,100473.42
2018-12-30T04:05:24.636Z,100463.43
2018-12-30T04:08:28.222Z,100470.78
2018-12-30T04:11:33.780Z,100474.37
2018-12-30T04:14:37.302Z,100476.16
2018-12-30T04:17:40.781Z,100476.66
2018-12-30T04:20:44.288Z,100485.05
2018-12-30T04:23:48.810Z,100482.78
2018-12-30T04:26:52.317Z,100477.98
2018-12-30T04:29:55.804Z,100484.09
2018-12-30T04:33:03.405Z,100484.59
2018-12-30T04:36:08.956Z,100481.95
2018-12-30T04:39:12.474Z,100492.53
2018-12-30T04:42:21.901Z,100480.22
2018-12-30T04:45:25.405Z,100485.91
2018-12-30T04:48:28.898Z,100492.53
2018-12-30T04:51:33.439Z,100487.79
2018-12-30T04:54:41.017Z,100486.84
2018-12-30T04:57:44.643Z,100485.14
2018-12-30T05:00:49.288Z,100494.40
2018-12-30T05:03:52.747Z,100488.16
2018-12-30T05:06:57.276Z,100482.87
2018-12-30T05:10:00.813Z,100497.91
2018-12-30T05:13:04.288Z,100501.02
2018-12-30T05:16:07.792Z,100501.38
2018-12-30T05:19:12.308Z,100501.38
2018-12-30T05:22:15.817Z,100513.29
2018-12-30T05:25:19.365Z,100521.23
2018-12-30T05:28:22.805Z,100518.21
2018-12-30T05:31:26.303Z,100529.66
2018-12-30T05:34:29.819Z,100528.79
2018-12-30T05:37:33.320Z,100538.42
2018-12-30T05:40:37.837Z,100540.23
2018-12-30T05:43:41.337Z,100539.83
2018-12-30T05:46:44.783Z,100539.00
2018-12-30T05:49:48.580Z,100548.26
2018-12-30T05:52:52.037Z,100545.61
2018-12-30T05:55:56.578Z,100552.23
2018-12-30T05:59:02.137Z,100554.02
2018-12-30T06:02:05.624Z,100569.88
2018-12-30T06:05:09.114Z,100578.28
2018-12-30T06:08:12.633Z,100581.50
2018-12-30T06:11:16.130Z,100591.59
2018-12-30T06:14:20.640Z,100592.08
2018-12-30T06:17:24.152Z,100598.70
2018-12-30T06:20:27.656Z,100607.95
2018-12-30T06:23:31.086Z,100615.97
2018-12-30T06:26:34.649Z,100632.71
2018-12-30T06:29:38.160Z,100637.59
2018-12-30T06:32:41.662Z,100645.16
2018-12-30T06:35:45.174Z,100647.80
2018-12-30T06:38:48.661Z,100656.20
2018-12-30T06:41:52.158Z,100669.91
2018-12-30T06:44:55.675Z,100668.67
2018-12-30T06:47:59.175Z,100681.03
2018-12-30T06:51:02.670Z,100687.27
2018-12-30T06:54:06.162Z,100696.04
2018-12-30T06:57:09.670Z,100698.23
2018-12-30T07:00:13.125Z,100705.30
2018-12-30T07:03:16.699Z,100718.44
2018-12-30T07:06:20.193Z,100723.36
2018-12-30T07:09:23.658Z,100728.27
2018-12-30T07:12:27.168Z,100735.34
2018-12-30T07:15:31.694Z,100739.77
2018-12-30T07:18:35.197Z,100740.72
2018-12-30T07:21:38.709Z,100751.30
2018-12-30T07:24:42.214Z,100749.97
2018-12-30T07:27:45.680Z,100758.85
2018-12-30T07:30:50.221Z,100765.92
2018-12-30T07:33:53.735Z,100762.82
2018-12-30T07:36:57.234Z,100766.50
2018-12-30T07:40:00.765Z,100774.34
2018-12-30T07:43:05.268Z,100785.38
2018-12-30T07:46:09.774Z,100785.38
2018-12-30T07:49:13.275Z,100793.78
2018-12-30T07:52:16.804Z,100793.40
2018-12-30T07:55:20.273Z,100800.80
2018-12-30T07:58:23.782Z,100805.68
2018-12-30T08:01:27.232Z,100807.57
2018-12-30T08:04:30.693Z,100818.15
2018-12-30T08:07:34.183Z,100823.44
2018-12-30T08:10:37.680Z,100828.81
2018-12-30T08:13:41.303Z,100833.61
2018-12-30T08:16:44.775Z,100841.17
2018-12-30T08:19:48.343Z,100853.45
2018-12-30T08:22:51.801Z,100857.91
2018-12-30T08:25:55.309Z,100865.34
2018-12-30T08:28:58.791Z,100880.38
2018-12-30T08:32:02.295Z,100880.46
2018-12-30T08:35:05.873Z,100884.05
2018-12-30T08:38:09.317Z,100889.34
2018-12-30T08:41:13.648Z,100903.39
2018-12-30T08:44:17.151Z,100917.94
2018-12-30T08:47:20.622Z,100921.45
2018-12-30T08:50:25.147Z,100936.53
2018-12-30T08:53:29.555Z,100947.11
2018-12-30T08:56:34.230Z,100957.69
2018-12-30T08:59:37.717Z,100956.86
2018-12-30T09:02:41.208Z,100962.98
2018-12-30T09:05:44.747Z,100970.53
2018-12-30T09:08:48.408Z,100983.30
2018-12-30T09:11:51.946Z,100988.59
2018-12-30T09:14:55.417Z,100986.02
2018-12-30T09:17:58.900Z,100998.30
2018-12-30T09:21:02.424Z,101003.59
2018-12-30T09:24:07.978Z,101017.27
2018-12-30T09:27:11.484Z,101026.45
2018-12-30T09:30:14.954Z,101024.22
2018-12-30T09:33:19.482Z,101021.58
2018-12-30T09:36:22.988Z,101032.45
2018-12-30T09:39:27.513Z,101047.84
2018-12-30T09:42:32.034Z,101044.28
2018-12-30T09:45:35.536Z,101056.19
2018-12-30T09:48:39.166Z,101053.92
2018-12-30T09:51:42.800Z,101061.78
2018-12-30T09:54:46.258Z,101060.91
2018-12-30T09:57:49.864Z,101056.03
2018-12-30T10:00:54.485Z,101070.96
2018-12-30T10:03:58.007Z,101071.72
2018-12-30T10:07:01.479Z,101069.88
2018-12-30T10:10:05.288Z,101082.72
2018-12-30T10:13:08.906Z,101075.95
2018-12-30T10:16:13.437Z,101089.63
2018-12-30T10:19:18.053Z,101080.30
2018-12-30T10:22:21.669Z,101089.94
2018-12-30T10:25:25.251Z,101100.52
2018-12-30T10:28:28.866Z,101098.75
2018-12-30T10:31:32.353Z,101104.80
2018-12-30T10:34:37.005Z,101097.34
2018-12-30T10:37:40.589Z,101107.37
2018-12-30T10:40:44.191Z,101109.10
2018-12-30T10:43:47.791Z,101108.16
2018-12-30T10:46:53.340Z,101115.16
2018-12-30T10:49:56.841Z,101108.55
2018-12-30T10:53:00.376Z,101111.19
2018-12-30T10:56:03.901Z,101108.95
2018-12-30T10:59:07.383Z,101112.44
2018-12-30T11:02:10.843Z,101108.55
2018-12-30T11:05:14.375Z,101109.41
2018-12-30T11:08:17.854Z,101100.61
2018-12-30T11:11:23.408Z,101116.02
2018-12-30T11:14:28.013Z,101100.22
2018-12-30T11:17:31.627Z,101109.03
2018-12-30T11:20:35.251Z,101103.81
2018-12-30T11:23:38.868Z,101114.39
2018-12-30T11:26:42.353Z,101094.94
2018-12-30T11:29:45.854Z,101098.52
2018-12-30T11:32:49.347Z,101094.14
2018-12-30T11:35:54.095Z,101107.70
2018-12-30T11:38:57.589Z,101109.48
2018-12-30T11:42:01.084Z,101110.35
2018-12-30T11:45:04.891Z,101113.45
2018-12-30T11:48:08.566Z,101101.16
2018-12-30T11:51:12.195Z,101097.95
2018-12-30T11:54:16.725Z,101105.44
2018-12-30T11:57:26.059Z,101095.73
2018-12-30T12:00:29.782Z,101102.34
2018-12-30T12:03:33.241Z,101101.02
2018-12-30T12:06:36.876Z,101106.31
2018-12-30T12:09:41.510Z,101108.55
2018-12-30T12:12:48.925Z,101105.06
2018-12-30T12:15:50.442Z,101105.89
2018-12-30T12:18:53.956Z,101107.22
2018-12-30T12:21:57.447Z,101107.22
2018-12-30T12:25:02.022Z,101101.92
2018-12-30T12:28:05.467Z,101106.45
2018-12-30T12:31:10.073Z,101115.64
2018-12-30T12:34:17.482Z,101105.14
2018-12-30T12:37:21.097Z,101105.89
2018-12-30T12:40:24.633Z,101099.84
2018-12-30T12:43:29.128Z,101101.16
2018-12-30T12:46:37.463Z,101102.94
2018-12-30T12:49:41.099Z,101099.43
2018-12-30T12:52:45.569Z,101094.14
2018-12-30T12:55:49.299Z,101098.52
2018-12-30T12:58:52.974Z,101106.45
2018-12-30T13:01:57.582Z,101114.32
2018-12-30T13:05:01.227Z,101108.95
2018-12-30T13:08:04.727Z,101111.11
2018-12-30T13:11:08.311Z,101110.28
2018-12-30T13:14:11.926Z,101113.69
2018-12-30T13:17:15.509Z,101131.30
2018-12-30T13:20:19.119Z,101119.39
2018-12-30T13:23:22.631Z,101120.71
2018-12-30T13:26:26.162Z,101128.20
2018-12-30T13:29:30.370Z,101130.39
2018-12-30T13:32:33.953Z,101126.80
2018-12-30T13:35:43.292Z,101132.55
2018-12-30T13:38:42.806Z,101137.84
2018-12-30T13:41:46.416Z,101146.27
2018-12-30T13:44:50.002Z,101154.20
2018-12-30T13:47:53.507Z,101157.23
2018-12-30T13:50:57.001Z,101151.06
2018-12-30T13:54:00.623Z,101146.27
2018-12-30T13:57:04.214Z,101152.88
2018-12-30T14:00:09.111Z,101151.14
2018-12-30T14:03:12.681Z,101157.30
2018-12-30T14:06:16.169Z,101155.52
2018-12-30T14:09:20.673Z,101159.49
2018-12-30T14:12:24.172Z,101179.34
2018-12-30T14:15:27.680Z,101173.22
2018-12-30T14:18:31.178Z,101177.59
2018-12-30T14:21:34.736Z,101190.83
2018-12-30T14:24:38.385Z,101178.51
2018-12-30T14:27:42.218Z,101173.22
2018-12-30T14:30:45.802Z,101177.59
2018-12-30T14:33:49.347Z,101178.96
2018-12-30T14:36:52.802Z,101186.33
2018-12-30T14:39:56.293Z,101179.27
2018-12-30T14:42:59.807Z,101188.36
2018-12-30T14:46:03.312Z,101196.56
2018-12-30T14:49:06.799Z,101199.52
2018-12-30T14:52:10.300Z,101199.44
2018-12-30T14:55:13.920Z,101209.88
2018-12-30T14:58:17.513Z,101217.19
2018-12-30T15:01:21.007Z,101206.91
2018-12-30T15:04:24.508Z,101210.34
2018-12-30T15:07:28.131Z,101218.14
2018-12-30T15:10:31.742Z,101223.36
2018-12-30T15:13:36.250Z,101223.28
2018-12-30T15:16:39.738Z,101218.75
2018-12-30T15:19:43.273Z,101230.52
2018-12-30T15:22:46.774Z,101222.50
2018-12-30T15:25:50.410Z,101232.63
2018-12-30T15:28:53.998Z,101224.13
2018-12-30T15:31:57.500Z,101227.56
2018-12-30T15:35:01.070Z,101229.76
2018-12-30T15:38:04.657Z,101229.27
2018-12-30T15:41:08.165Z,101237.63
2018-12-30T15:44:11.662Z,101234.42
2018-12-30T15:47:15.172Z,101229.50
2018-12-30T15:50:18.667Z,101230.30
2018-12-30T15:53:22.219Z,101237.30
2018-12-30T15:56:25.686Z,101233.25
2018-12-30T15:59:29.156Z,101234.50
2018-12-30T16:02:32.662Z,101235.36
2018-12-30T16:05:36.292Z,101250.31
2018-12-30T16:08:39.870Z,101244.94
2018-12-30T16:11:43.369Z,101241.34
2018-12-30T16:14:46.875Z,101260.30
2018-12-30T16:17:50.382Z,101259.81
2018-12-30T16:20:54.934Z,101257.16
2018-12-30T16:23:58.427Z,101263.63
2018-12-30T16:27:01.933Z,101261.85
2018-12-30T16:30:06.134Z,101268.40
2018-12-30T16:33:09.717Z,101265.26
2018-12-30T16:36:13.251Z,101266.59
2018-12-30T16:39:17.780Z,101267.37
2018-12-30T16:42:21.368Z,101291.60
2018-12-30T16:45:24.967Z,101293.75
2018-12-30T16:48:28.483Z,101294.52
2018-12-30T16:51:33.030Z,101304.28
2018-12-30T16:54:36.486Z,101299.43
2018-12-30T16:57:39.985Z,101308.63
2018-12-30T17:00:43.624Z,101309.58
2018-12-30T17:03:47.215Z,101304.73
2018-12-30T17:06:50.709Z,101323.28
2018-12-30T17:09:54.308Z,101322.06
2018-12-30T17:12:57.939Z,101330.96
2018-12-30T17:16:01.409Z,101322.22
2018-12-30T17:19:04.910Z,101323.02
2018-12-30T17:22:09.436Z,101330.02
2018-12-30T17:25:14.057Z,101322.06
2018-12-30T17:28:17.667Z,101312.03
2018-12-30T17:31:21.158Z,101320.81
2018-12-30T17:34:24.670Z,101319.50
2018-12-30T17:37:28.243Z,101323.39
2018-12-30T17:40:38.457Z,101319.91
2018-12-30T17:43:38.360Z,101325.59
2018-12-30T17:46:41.961Z,101325.66
2018-12-30T17:49:45.463Z,101320.75
2018-12-30T17:52:49.970Z,101329.18
2018-12-30T17:55:53.484Z,101328.31
2018-12-30T17:59:00.251Z,101323.84
2018-12-30T18:02:04.900Z,101309.65
2018-12-30T18:05:08.830Z,101317.59
2018-12-30T18:08:12.423Z,101324.22
2018-12-30T18:11:15.942Z,101323.28
2018-12-30T18:14:19.390Z,101332.55
2018-12-30T18:17:25.275Z,101339.55
2018-12-30T18:20:28.850Z,101346.18
2018-12-30T18:23:33.395Z,101350.16
2018-12-30T18:26:39.107Z,101360.22
2018-12-30T18:29:42.630Z,101358.83
2018-12-30T18:32:46.136Z,101363.25
2018-12-30T18:35:49.643Z,101357.42
2018-12-30T18:38:54.206Z,101368.02
2018-12-30T18:41:58.699Z,101373.70
2018-12-30T18:45:02.185Z,101372.37
2018-12-30T18:48:05.694Z,101379.38
2018-12-30T18:51:09.196Z,101388.58
2018-12-30T18:54:13.732Z,101381.12
2018-12-30T18:57:17.335Z,101394.75
2018-12-30T19:00:20.917Z,101400.13
2018-12-30T19:03:25.462Z,101402.63
2018-12-30T19:06:28.963Z,101391.16
2018-12-30T19:09:32.637Z,101393.36
2018-12-30T19:12:36.166Z,101399.11
2018-12-30T19:15:40.903Z,101394.38
2018-12-30T19:18:44.517Z,101401.76
2018-12-30T19:21:48.119Z,101393.81
2018-12-30T19:24:51.623Z,101395.13
2018-12-30T19:27:55.215Z,101389.84
2018-12-30T19:30:58.808Z,101395.55
2018-12-30T19:34:02.501Z,101400.85
2018-12-30T19:37:06.049Z,101395.93
2018-12-30T19:40:11.113Z,101405.20
2018-12-30T19:43:14.656Z,101402.55
2018-12-30T19:46:19.180Z,101398.96
2018-12-30T19:49:22.680Z,101406.91
2018-12-30T19:52:26.206Z,101405.97
2018-12-30T19:55:29.687Z,101411.27
2018-12-30T19:58:33.191Z,101420.96
2018-12-30T20:01:36.709Z,101409.80
2018-12-30T20:04:40.753Z,101407.22
2018-12-30T20:07:44.519Z,101408.47
2018-12-30T20:10:48.013Z,101414.64
2018-12-30T20:13:51.624Z,101404.04
2018-12-30T20:16:55.223Z,101400.94
2018-12-30T20:19:58.712Z,101411.12
2018-12-30T20:23:02.213Z,101409.27
2018-12-30T20:26:05.825Z,101399.53
2018-12-30T20:29:09.419Z,101386.28
2018-12-30T20:32:14.166Z,101387.53
2018-12-30T20:35:17.654Z,101394.05
2018-12-30T20:38:22.229Z,101391.89
2018-12-30T20:41:25.682Z,101393.67
2018-12-30T20:44:30.292Z,101389.77
2018-12-30T20:47:33.919Z,101394.16
2018-12-30T20:50:37.397Z,101392.84
2018-12-30T20:53:41.950Z,101387.05
2018-12-30T20:56:45.447Z,101392.27
2018-12-30T20:59:49.015Z,101386.97
2018-12-30T21:02:52.648Z,101394.92
2018-12-30T21:05:56.140Z,101396.63
2018-12-30T21:08:59.642Z,101386.10
2018-12-30T21:12:03.153Z,101399.77
2018-12-30T21:15:07.033Z,101392.27
2018-12-30T21:18:10.575Z,101405.91
2018-12-30T21:21:14.049Z,101389.92
2018-12-30T21:24:17.640Z,101394.61
2018-12-30T21:27:21.292Z,101401.38
2018-12-30T21:30:24.781Z,101404.55
2018-12-30T21:33:28.287Z,101405.64
2018-12-30T21:36:31.786Z,101407.05
2018-12-30T21:39:35.433Z,101405.41
2018-12-30T21:42:43.683Z,101409.00
2018-12-30T21:45:44.335Z,101423.58
2018-12-30T21:48:47.838Z,101427.16
2018-12-30T21:51:53.375Z,101425.47
2018-12-30T21:54:57.895Z,101436.06
2018-12-30T21:58:01.463Z,101431.78
2018-12-30T22:01:04.902Z,101437.15
2018-12-30T22:04:08.407Z,101432.34
2018-12-30T22:07:12.925Z,101434.11
2018-12-30T22:10:17.448Z,101439.87
2018-12-30T22:13:21.185Z,101443.45
2018-12-30T22:16:24.668Z,101451.79
2018-12-30T22:19:28.164Z,101452.20
2018-12-30T22:22:33.709Z,101448.76
2018-12-30T22:25:38.231Z,101447.89
2018-12-30T22:28:41.760Z,101456.32
2018-12-30T22:31:45.227Z,101464.79
2018-12-30T22:34:48.741Z,101461.34
2018-12-30T22:37:52.266Z,101473.02
2018-12-30T22:40:56.783Z,101465.14
2018-12-30T22:44:01.299Z,101471.45
2018-12-30T22:47:04.796Z,101471.59
2018-12-30T22:50:08.312Z,101475.17
2018-12-30T22:53:11.793Z,101475.70
2018-12-30T22:56:15.297Z,101480.61
2018-12-30T22:59:18.800Z,101478.10
2018-12-30T23:02:22.310Z,101471.09
2018-12-30T23:05:25.809Z,101471.23
2018-12-30T23:08:29.313Z,101469.53
2018-12-30T23:11:32.789Z,101467.78
2018-12-30T23:14:36.312Z,101460.33
2018-12-30T23:17:39.756Z,101471.37
2018-12-30T23:20:43.321Z,101470.43
2018-12-30T23:23:46.822Z,101486.32
2018-12-30T23:26:50.258Z,101480.12
2018-12-30T23:29:53.867Z,101481.02
2018-12-30T23:32:57.507Z,101474.41
2018-12-30T23:36:02.065Z,101478.48
2018-12-30T23:39:07.577Z,101481.58
2018-12-30T23:42:11.107Z,101483.84
2018-12-30T23:45:14.597Z,101488.20
2018-12-30T23:48:18.086Z,101492.23
2018-12-30T23:51:22.625Z,101492.30
2018-12-30T23:54:26.116Z,101486.20
2018-12-30T23:57:30.652Z,101481.47
